Time;durP1;ratioP1;P1;durP2;ratioP2;P2;SDS_P1;SDS_P2;PMS_P1;PMS_P2;Temp;Humidity;BMP_temperature;BMP_pressure;BME280_temperature;BME280_humidity;BME280_pressure;Samples;Min_cycle;Max_cycle;Signal;HPM_P1;HPM_P2
2022/01/26 00:10:12;;;;;;;97.10;31.63;;;1.50;99.90;;;;;;10287145;28;20038;-84
2022/01/26 00:15:13;;;;;;;117.27;36.67;;;1.50;99.90;;;;;;10287540;28;20043;-86
2022/01/26 00:20:26;;;;;;;111.00;38.93;;;1.60;99.90;;;;;;10286866;28;20067;-86
2022/01/26 00:26:00;;;;;;;111.93;38.10;;;1.50;99.90;;;;;;10286468;28;20154;-84
2022/01/26 00:32:56;;;;;;;88.23;32.37;;;1.50;99.90;;;;;;10286616;28;20411;-84
2022/01/26 00:41:57;;;;;;;83.67;29.00;;;1.50;99.90;;;;;;10286225;28;20398;-86
2022/01/26 00:46:59;;;;;;;84.17;29.37;;;1.50;99.90;;;;;;10286440;28;20033;-86
2022/01/26 00:51:59;;;;;;;82.13;27.00;;;1.50;99.90;;;;;;10268092;28;20057;-83
2022/01/26 00:57:00;;;;;;;79.87;27.50;;;1.50;99.90;;;;;;10287521;28;20056;-84
2022/01/26 01:02:01;;;;;;;80.50;26.63;;;1.50;99.90;;;;;;10294245;28;20034;-84
2022/01/26 01:07:04;;;;;;;84.43;28.90;;;1.50;99.90;;;;;;10277005;28;20027;-83
2022/01/26 01:12:06;;;;;;;90.23;31.27;;;1.50;99.90;;;;;;10294532;28;20395;-84
2022/01/26 01:17:10;;;;;;;91.30;31.67;;;1.50;99.90;;;;;;10294139;28;20077;-84
2022/01/26 01:38:09;;;;;;;102.80;35.40;;;1.50;99.90;;;;;;10294054;28;20149;-84
2022/01/26 01:43:10;;;;;;;100.73;34.20;;;1.50;99.90;;;;;;10275224;28;20030;-85
2022/01/26 01:48:15;;;;;;;100.90;35.53;;;1.50;99.90;;;;;;10274555;28;20031;-83
2022/01/26 01:53:17;;;;;;;114.57;35.57;;;1.50;99.90;;;;;;10292518;28;20034;-84
2022/01/26 01:58:18;;;;;;;85.83;31.03;;;1.50;99.90;;;;;;10292500;28;20063;-84
2022/01/26 02:03:19;;;;;;;92.97;32.27;;;1.50;99.90;;;;;;10291773;28;20142;-84
2022/01/26 02:08:20;;;;;;;99.43;35.13;;;1.50;99.90;;;;;;10291605;28;20110;-85
2022/01/26 02:13:28;;;;;;;88.23;30.10;;;1.40;99.90;;;;;;10291189;28;20650;-85
2022/01/26 02:51:01;;;;;;;92.80;29.47;;;1.50;99.90;;;;;;10226327;28;20047;-82
2022/01/26 02:56:05;;;;;;;92.07;30.90;;;1.40;99.90;;;;;;10289328;28;20621;-82
2022/01/26 03:02:10;;;;;;;95.17;30.47;;;1.40;99.90;;;;;;10272031;28;20475;-83
2022/01/26 03:06:44;;;;;;;100.33;34.00;;;1.40;99.90;;;;;;10272472;28;20045;-82
2022/01/26 03:11:46;;;;;;;90.47;30.30;;;1.50;99.90;;;;;;10290126;28;20093;-84
2022/01/26 03:16:54;;;;;;;90.07;30.23;;;1.50;99.90;;;;;;10289306;28;20053;-85
2022/01/26 03:28:15;;;;;;;101.47;36.65;;;1.50;99.90;;;;;;10289437;28;20035;-83
2022/01/26 03:37:53;;;;;;;107.47;35.43;;;1.50;99.90;;;;;;10288903;28;20179;-82
2022/01/26 03:42:54;;;;;;;90.50;32.80;;;1.50;99.90;;;;;;10270993;28;20138;-84
2022/01/26 03:47:55;;;;;;;111.23;36.30;;;1.50;99.90;;;;;;10271120;28;20044;-82
2022/01/26 03:52:55;;;;;;;105.87;32.93;;;1.50;99.90;;;;;;10287735;28;20478;-84
2022/01/26 03:57:56;;;;;;;114.93;37.67;;;1.50;99.90;;;;;;10288862;28;20055;-82
2022/01/26 04:02:56;;;;;;;124.00;35.27;;;1.50;99.90;;;;;;10286074;28;20043;-82
2022/01/26 04:08:04;;;;;;;117.00;35.77;;;1.50;99.90;;;;;;10269953;28;20034;-83
2022/01/26 04:13:04;;;;;;;118.30;34.50;;;1.40;99.90;;;;;;10286706;28;20041;-81
2022/01/26 04:18:09;;;;;;;97.40;30.10;;;1.50;99.90;;;;;;10286474;28;20121;-81
2022/01/26 04:23:28;;;;;;;82.27;28.97;;;1.40;99.90;;;;;;10286345;28;20368;-82
2022/01/26 04:28:38;;;;;;;95.63;34.37;;;1.40;99.90;;;;;;10285934;28;20134;-83
2022/01/26 04:33:38;;;;;;;125.37;40.67;;;1.40;99.90;;;;;;10267835;28;20035;-81
2022/01/26 04:38:50;;;;;;;123.07;38.27;;;1.40;99.90;;;;;;10286182;28;20033;-85
2022/01/26 04:43:55;;;;;;;108.50;34.17;;;1.40;99.90;;;;;;10286852;28;20030;-88
2022/01/26 04:48:56;;;;;;;117.80;41.80;;;1.40;99.90;;;;;;10286107;28;20034;-85
2022/01/26 04:53:57;;;;;;;112.37;34.20;;;1.40;99.90;;;;;;10286445;28;20047;-84
2022/01/26 04:58:57;;;;;;;126.57;41.77;;;1.40;99.90;;;;;;10285651;28;20077;-85
2022/01/26 05:03:58;;;;;;;116.50;41.23;;;1.40;99.90;;;;;;10276811;28;20126;-83
2022/01/26 05:08:59;;;;;;;111.20;39.37;;;1.40;99.90;;;;;;10286364;28;20583;-84
2022/01/26 05:14:00;;;;;;;120.63;37.97;;;1.50;99.90;;;;;;10285745;28;20050;-86
2022/01/26 05:19:01;;;;;;;81.90;30.40;;;1.50;99.90;;;;;;10268559;28;20558;-86
2022/01/26 05:24:02;;;;;;;98.67;34.50;;;1.50;99.90;;;;;;10284496;28;20035;-83
2022/01/26 05:29:02;;;;;;;101.10;35.07;;;1.50;99.90;;;;;;10275148;28;20027;-84
2022/01/26 05:34:03;;;;;;;113.43;40.80;;;1.50;99.90;;;;;;10283855;28;20558;-82
2022/01/26 05:39:04;;;;;;;115.03;40.87;;;1.40;99.90;;;;;;10268754;28;20039;-82
2022/01/26 05:44:06;;;;;;;118.87;41.63;;;1.40;99.90;;;;;;10265270;28;20050;-83
2022/01/26 05:49:07;;;;;;;138.77;46.77;;;1.50;99.90;;;;;;10282090;28;20023;-84
2022/01/26 05:54:09;;;;;;;123.50;42.37;;;1.50;99.90;;;;;;10269758;28;20546;-83
2022/01/26 05:59:10;;;;;;;126.30;39.63;;;1.50;99.90;;;;;;10265496;28;20043;-82
2022/01/26 06:04:10;;;;;;;142.20;45.93;;;1.40;99.90;;;;;;10270730;28;20534;-84
2022/01/26 06:09:11;;;;;;;140.23;49.53;;;1.50;99.90;;;;;;10292637;28;20069;-82
2022/01/26 06:14:12;;;;;;;116.20;41.80;;;1.40;99.90;;;;;;10275093;28;20069;-84
2022/01/26 06:19:12;;;;;;;123.70;43.93;;;1.40;99.90;;;;;;10292218;28;20023;-85
2022/01/26 06:24:13;;;;;;;117.43;44.37;;;1.50;99.90;;;;;;10292184;28;20030;-83
2022/01/26 06:29:13;;;;;;;111.70;42.83;;;1.50;99.90;;;;;;10274269;28;20461;-84
2022/01/26 06:34:14;;;;;;;133.87;53.03;;;1.50;99.90;;;;;;10291827;28;20042;-84
2022/01/26 06:39:15;;;;;;;106.00;42.90;;;1.50;99.90;;;;;;10291533;28;20151;-82
2022/01/26 06:44:29;;;;;;;97.60;38.30;;;1.50;99.90;;;;;;10291601;28;20460;-83
2022/01/26 06:49:29;;;;;;;92.20;32.80;;;1.50;99.90;;;;;;10290872;28;20027;-83
2022/01/26 06:54:30;;;;;;;112.43;40.00;;;1.40;99.90;;;;;;10299217;28;20104;-82
2022/01/26 06:59:31;;;;;;;105.83;34.90;;;1.40;99.90;;;;;;10312833;28;20132;-82
2022/01/26 07:04:31;;;;;;;138.73;44.10;;;1.40;99.90;;;;;;10284519;28;20035;-83
2022/01/26 07:09:32;;;;;;;123.13;39.07;;;1.50;99.90;;;;;;10309146;28;20586;-83
2022/01/26 07:24:53;;;;;;;166.80;60.40;;;1.50;99.90;;;;;;10271104;28;20499;-83
2022/01/26 07:29:54;;;;;;;140.90;50.93;;;1.50;99.90;;;;;;10275249;28;20023;-85
2022/01/26 07:34:54;;;;;;;133.70;47.10;;;1.50;99.90;;;;;;10266828;28;20058;-83
2022/01/26 07:40:06;;;;;;;109.83;38.93;;;1.50;99.90;;;;;;10267989;28;20023;-85
2022/01/26 07:45:10;;;;;;;116.13;38.93;;;1.60;99.90;;;;;;10257320;28;20532;-83
2022/01/26 07:50:13;;;;;;;143.67;51.90;;;1.60;99.90;;;;;;10264899;28;20018;-84
2022/01/26 07:55:18;;;;;;;143.93;47.57;;;1.70;99.90;;;;;;10252070;28;20121;-85
2022/01/26 08:00:19;;;;;;;120.03;45.03;;;1.70;99.90;;;;;;10288438;28;20063;-83
2022/01/26 08:05:21;;;;;;;130.63;47.60;;;1.70;99.90;;;;;;10269688;28;20062;-82
2022/01/26 08:10:50;;;;;;;168.47;58.40;;;1.70;99.90;;;;;;10269720;28;20109;-85
2022/01/26 08:15:56;;;;;;;169.87;57.30;;;1.80;99.90;;;;;;10269358;28;20023;-81
2022/01/26 08:27:10;;;;;;;143.90;48.60;;;1.80;99.90;;;;;;10286355;28;20031;-82
2022/01/26 08:32:11;;;;;;;154.10;51.23;;;1.80;99.90;;;;;;10269250;28;20051;-82
2022/01/26 08:43:14;;;;;;;171.07;54.63;;;1.90;99.90;;;;;;10284201;28;20494;-83
2022/01/26 08:48:15;;;;;;;189.27;64.17;;;2.00;99.90;;;;;;10274523;28;20023;-84
2022/01/26 08:53:43;;;;;;;155.47;48.97;;;2.00;99.90;;;;;;10257727;28;20045;-84
2022/01/26 08:58:44;;;;;;;161.20;52.23;;;2.00;99.90;;;;;;10262877;28;20054;-84
2022/01/26 09:03:44;;;;;;;236.47;76.20;;;2.00;99.90;;;;;;10269605;28;20031;-82
2022/01/26 09:08:50;;;;;;;146.03;51.10;;;2.10;99.90;;;;;;10261376;28;20038;-84
2022/01/26 09:13:57;;;;;;;165.63;49.28;;;2.10;99.90;;;;;;10283669;28;20042;-83
2022/01/26 09:19:03;;;;;;;152.90;50.13;;;2.10;99.90;;;;;;10288915;28;20027;-83
2022/01/26 09:24:04;;;;;;;164.70;50.33;;;2.10;99.90;;;;;;10294090;28;20069;-83
2022/01/26 09:29:04;;;;;;;176.70;60.00;;;2.10;99.90;;;;;;10293410;28;20089;-82
2022/01/26 09:34:05;;;;;;;161.03;51.23;;;2.10;99.90;;;;;;10286375;28;20427;-85
2022/01/26 09:39:06;;;;;;;181.87;61.63;;;2.10;99.90;;;;;;10285138;28;20035;-85
2022/01/26 09:44:07;;;;;;;200.67;56.70;;;2.10;99.90;;;;;;10293786;28;20114;-83
2022/01/26 09:49:08;;;;;;;191.67;64.70;;;2.10;99.90;;;;;;10288251;28;20042;-83
2022/01/26 09:54:14;;;;;;;190.43;58.40;;;2.10;99.90;;;;;;10293342;28;20037;-83
2022/01/26 09:59:15;;;;;;;180.55;55.17;;;2.10;99.90;;;;;;10290810;28;20066;-84
2022/01/26 10:04:19;;;;;;;194.87;60.33;;;2.10;99.90;;;;;;10292828;28;20458;-84
2022/01/26 10:09:42;;;;;;;171.07;55.30;;;2.10;99.90;;;;;;10292265;28;20122;-83
2022/01/26 10:20:14;;;;;;;;;;;2.10;99.90;;;;;;10292886;28;20035;-83
2022/01/26 10:25:18;;;;;;;195.57;67.70;;;2.20;99.90;;;;;;10285687;28;19917;-83
2022/01/26 10:30:20;;;;;;;129.47;50.17;;;2.20;99.90;;;;;;10274073;28;20030;-84
2022/01/26 10:35:21;;;;;;;123.80;47.73;;;2.20;99.90;;;;;;10291893;28;20494;-83
2022/01/26 10:40:25;;;;;;;122.23;44.23;;;2.20;99.90;;;;;;10292025;28;20050;-84
2022/01/26 10:45:38;;;;;;;110.77;43.87;;;2.20;99.90;;;;;;10290869;28;20688;-83
2022/01/26 10:55:40;;;;;;;123.07;50.23;;;2.30;99.90;;;;;;10290146;28;20060;-83
2022/01/26 11:00:41;;;;;;;135.17;55.47;;;2.30;99.90;;;;;;10291371;28;20054;-83
2022/01/26 11:05:42;;;;;;;129.60;54.10;;;2.40;99.90;;;;;;10291136;28;20031;-84
2022/01/26 11:10:47;;;;;;;113.73;46.17;;;2.40;99.90;;;;;;10290302;28;20031;-84
2022/01/26 11:15:48;;;;;;;139.97;55.97;;;2.40;99.90;;;;;;10289737;28;20050;-83
2022/01/26 11:20:51;;;;;;;134.83;54.43;;;2.40;99.90;;;;;;10289244;28;20052;-84
2022/01/26 11:25:52;;;;;;;110.30;43.77;;;2.40;99.90;;;;;;10289028;28;20031;-85
2022/01/26 11:30:58;;;;;;;141.50;60.30;;;2.40;99.90;;;;;;10287082;28;20453;-86
2022/01/26 11:35:59;;;;;;;;;;;2.40;99.90;;;;;;10285316;28;20483;-83
2022/01/26 11:46:36;;;;;;;75.87;32.17;;;2.30;99.90;;;;;;10282783;28;20031;-83
2022/01/26 11:51:46;;;;;;;76.83;34.03;;;2.30;99.90;;;;;;10264302;28;20109;-85
2022/01/26 11:56:58;;;;;;;100.43;45.03;;;2.30;99.90;;;;;;10288725;28;20057;-83
2022/01/26 12:02:03;;;;;;;85.27;33.93;;;2.30;99.90;;;;;;10287506;28;20471;-83
2022/01/26 12:07:21;;;;;;;107.13;45.90;;;2.30;99.90;;;;;;10288178;28;20058;-84
2022/01/26 12:12:24;;;;;;;137.40;58.20;;;2.30;99.90;;;;;;10288463;28;20019;-83
2022/01/26 12:17:28;;;;;;;127.37;62.30;;;2.30;99.90;;;;;;10286365;28;20511;-83
2022/01/26 12:33:44;;;;;;;144.77;56.47;;;2.50;99.90;;;;;;10287469;28;20046;-83
2022/01/26 12:38:48;;;;;;;157.80;63.05;;;2.60;99.90;;;;;;10274369;28;20050;-86
2022/01/26 12:43:54;;;;;;;120.57;55.13;;;2.60;99.90;;;;;;10286751;28;20068;-83
2022/01/26 12:49:14;;;;;;;168.20;77.90;;;2.50;99.90;;;;;;10268610;28;20035;-85
2022/01/26 12:54:15;;;;;;;137.47;63.27;;;2.50;99.90;;;;;;10250877;28;20053;-88
2022/01/26 12:59:20;;;;;;;124.17;57.43;;;2.40;99.90;;;;;;10280059;28;20138;-84
2022/01/26 13:04:20;;;;;;;119.93;51.83;;;2.40;99.90;;;;;;10269297;28;20066;-83
2022/01/26 13:09:27;;;;;;;111.10;45.87;;;2.30;99.90;;;;;;10281107;28;20157;-83
2022/01/26 13:14:45;;;;;;;127.40;54.53;;;2.30;99.90;;;;;;10267642;28;20121;-84
2022/01/26 13:50:36;;;;;;;108.70;42.87;;;2.10;99.90;;;;;;10286200;28;20567;-83
2022/01/26 14:00:53;;;;;;;103.70;46.03;;;2.10;99.90;;;;;;10286022;28;20071;-86
2022/01/26 14:05:55;;;;;;;78.97;33.40;;;2.10;99.90;;;;;;10271856;28;20043;-85
2022/01/26 14:10:56;;;;;;;74.60;27.23;;;2.10;99.90;;;;;;10286569;28;20042;-84
2022/01/26 14:15:58;;;;;;;78.77;30.70;;;2.10;99.90;;;;;;10271016;28;20396;-84
2022/01/26 14:26:23;;;;;;;102.43;38.93;;;2.00;99.90;;;;;;10266077;28;20034;-82
2022/01/26 14:31:33;;;;;;;91.53;35.90;;;2.00;99.90;;;;;;10291685;28;20076;-82
2022/01/26 16:07:22;;;;;;;167.90;68.13;;;1.80;99.90;;;;;;10286118;28;20137;-87
2022/01/26 17:21:15;;;;;;;141.23;54.90;;;1.70;99.90;;;;;;10281086;28;20070;-84
2022/01/26 18:31:45;;;;;;;40.03;16.70;;;1.40;99.90;;;;;;10291845;28;20042;-82
2022/01/26 18:32:29;;;;;;;37.42;15.20;;;1.40;99.90;;;;;;10290282;28;20395;-81
2022/01/26 18:53:27;;;;;;;57.17;20.53;;;1.40;99.90;;;;;;10291017;28;20043;-83
2022/01/26 18:58:28;;;;;;;69.87;28.60;;;1.30;99.90;;;;;;10291032;28;20050;-84
2022/01/26 19:03:28;;;;;;;72.53;29.57;;;1.30;99.90;;;;;;10273788;28;20467;-80
2022/01/26 19:08:30;;;;;;;83.03;34.17;;;1.30;99.90;;;;;;10290210;28;20037;-82
2022/01/26 19:13:31;;;;;;;88.53;36.43;;;1.30;99.90;;;;;;10285184;28;20096;-85
2022/01/26 19:18:48;;;;;;;122.70;50.73;;;1.30;99.90;;;;;;10269966;28;20030;-85
2022/01/26 19:29:21;;;;;;;108.90;43.07;;;1.30;99.90;;;;;;10288395;28;19926;-85
2022/01/26 19:40:29;;;;;;;133.40;53.73;;;1.30;99.90;;;;;;10287365;28;20046;-83
2022/01/26 19:55:43;;;;;;;81.77;36.47;;;1.30;99.90;;;;;;10283667;28;20469;-85
2022/01/26 20:00:47;;;;;;;87.27;34.83;;;1.30;99.90;;;;;;10259049;28;20051;-82
2022/01/26 20:05:51;;;;;;;100.83;39.07;;;1.30;99.90;;;;;;10279076;28;20036;-85
2022/01/26 20:10:57;;;;;;;97.40;35.83;;;1.30;99.90;;;;;;10284364;28;20038;-85
2022/01/26 20:16:01;;;;;;;60.40;25.03;;;1.30;99.90;;;;;;10279481;28;20042;-84
2022/01/26 20:21:03;;;;;;;55.60;23.30;;;1.30;99.90;;;;;;10282813;28;20276;-84
2022/01/26 20:26:06;;;;;;;55.30;23.50;;;1.30;99.90;;;;;;10286028;28;20030;-82
2022/01/26 20:31:17;;;;;;;51.13;21.00;;;1.30;99.90;;;;;;10282377;28;20555;-83
2022/01/26 20:36:18;;;;;;;63.30;23.83;;;1.30;99.90;;;;;;10274237;28;20043;-83
2022/01/26 20:41:21;;;;;;;55.17;22.27;;;1.30;99.90;;;;;;10277929;28;20022;-83
2022/01/26 20:46:22;;;;;;;50.37;21.17;;;1.30;99.90;;;;;;10266373;28;20034;-84
2022/01/26 20:57:43;;;;;;;45.47;20.07;;;1.20;99.90;;;;;;10290800;28;20053;-85
2022/01/26 21:02:48;;;;;;;44.20;18.63;;;1.30;99.90;;;;;;10265276;28;20051;-83
2022/01/26 21:07:50;;;;;;;47.45;18.52;;;1.20;99.90;;;;;;10281415;28;20466;-85
2022/01/26 21:12:53;;;;;;;51.07;20.90;;;1.20;99.90;;;;;;10282424;28;20038;-82
2022/01/26 21:17:54;;;;;;;41.43;18.33;;;1.20;99.90;;;;;;10275527;28;20127;-83
2022/01/26 21:22:58;;;;;;;45.07;18.60;;;1.20;99.90;;;;;;10292329;28;20086;-84
2022/01/26 21:39:31;;;;;;;49.93;20.13;;;1.20;99.90;;;;;;12124180;23;20067;-85
2022/01/26 21:51:02;;;;;;;53.97;22.93;;;1.20;99.90;;;;;;10290147;28;20051;-83
2022/01/26 22:02:13;;;;;;;98.13;41.37;;;1.20;99.90;;;;;;10284980;28;20038;-83
2022/01/26 22:07:16;;;;;;;59.33;26.73;;;1.20;99.90;;;;;;10283159;28;20035;-82
2022/01/26 22:12:17;;;;;;;46.03;19.57;;;1.20;99.90;;;;;;10285878;28;20042;-84
2022/01/26 22:17:17;;;;;;;55.57;23.37;;;1.20;99.90;;;;;;10287433;28;20655;-84
2022/01/26 22:22:18;;;;;;;51.53;18.83;;;1.10;99.90;;;;;;10288617;28;20038;-83
2022/01/26 22:27:24;;;;;;;56.03;22.67;;;1.10;99.90;;;;;;10286411;28;20038;-83
2022/01/26 22:32:25;;;;;;;59.93;24.90;;;1.10;99.90;;;;;;10285393;28;20067;-84
2022/01/26 22:37:26;;;;;;;48.90;20.57;;;1.10;99.90;;;;;;10288622;28;20125;-82
2022/01/26 22:42:27;;;;;;;60.70;24.60;;;1.10;99.90;;;;;;10289686;28;20064;-82
2022/01/26 22:47:28;;;;;;;52.43;21.17;;;1.10;99.90;;;;;;10273133;28;20023;-82
2022/01/26 22:52:29;;;;;;;70.17;29.53;;;1.00;99.90;;;;;;10290391;28;20034;-81
2022/01/26 22:57:29;;;;;;;56.73;25.00;;;1.00;99.90;;;;;;10289813;28;20406;-84
2022/01/26 23:02:45;;;;;;;68.67;28.13;;;1.00;99.90;;;;;;10290168;28;20135;-82
2022/01/26 23:07:48;;;;;;;63.42;24.60;;;1.10;99.90;;;;;;10280533;28;20026;-81
2022/01/26 23:12:48;;;;;;;51.23;20.77;;;1.10;99.90;;;;;;10290409;28;20163;-82
2022/01/26 23:17:49;;;;;;;47.30;19.77;;;1.00;99.90;;;;;;10271345;28;20046;-82
2022/01/26 23:22:52;;;;;;;47.93;19.93;;;1.10;99.90;;;;;;10290013;28;20023;-83
2022/01/26 23:33:20;;;;;;;55.83;21.30;;;1.00;99.90;;;;;;10289187;28;20039;-83
2022/01/26 23:38:30;;;;;;;63.00;24.80;;;1.00;99.90;;;;;;10280518;28;20094;-83
